sensor_id;sensor_type;location;lat;lon;timestamp;temperature;humidity
17307;DHT22;8771;48.048;7.682;2023-03-07T00:04:25;6.30;68.00
17307;DHT22;8771;48.048;7.682;2023-03-07T00:09:27;6.20;68.00
17307;DHT22;8771;48.048;7.682;2023-03-07T00:14:29;6.30;68.10
17307;DHT22;8771;48.048;7.682;2023-03-07T00:19:32;6.20;68.00
17307;DHT22;8771;48.048;7.682;2023-03-07T00:24:34;6.20;68.00
17307;DHT22;8771;48.048;7.682;2023-03-07T00:29:36;6.10;67.90
17307;DHT22;8771;48.048;7.682;2023-03-07T00:34:40;6.10;68.00
17307;DHT22;8771;48.048;7.682;2023-03-07T00:39:42;6.00;67.90
17307;DHT22;8771;48.048;7.682;2023-03-07T00:44:43;6.00;67.90
17307;DHT22;8771;48.048;7.682;2023-03-07T00:49:47;5.90;67.90
17307;DHT22;8771;48.048;7.682;2023-03-07T00:54:49;5.90;67.90
17307;DHT22;8771;48.048;7.682;2023-03-07T00:59:50;5.90;67.90
17307;DHT22;8771;48.048;7.682;2023-03-07T01:04:54;5.90;67.90
17307;DHT22;8771;48.048;7.682;2023-03-07T01:09:56;5.90;67.90
17307;DHT22;8771;48.048;7.682;2023-03-07T01:14:59;5.90;67.80
17307;DHT22;8771;48.048;7.682;2023-03-07T01:20:07;6.00;67.80
17307;DHT22;8771;48.048;7.682;2023-03-07T01:25:09;6.00;67.70
17307;DHT22;8771;48.048;7.682;2023-03-07T01:30:13;6.00;67.70
17307;DHT22;8771;48.048;7.682;2023-03-07T01:35:16;5.90;67.70
17307;DHT22;8771;48.048;7.682;2023-03-07T01:40:19;5.90;67.70
17307;DHT22;8771;48.048;7.682;2023-03-07T01:51:03;5.90;67.80
17307;DHT22;8771;48.048;7.682;2023-03-07T01:56:06;5.90;67.70
17307;DHT22;8771;48.048;7.682;2023-03-07T02:01:12;5.90;67.70
17307;DHT22;8771;48.048;7.682;2023-03-07T02:06:19;5.90;67.70
17307;DHT22;8771;48.048;7.682;2023-03-07T02:11:21;6.00;67.70
17307;DHT22;8771;48.048;7.682;2023-03-07T02:16:24;6.00;67.70
17307;DHT22;8771;48.048;7.682;2023-03-07T02:21:35;6.00;67.70
17307;DHT22;8771;48.048;7.682;2023-03-07T02:26:44;6.00;67.60
17307;DHT22;8771;48.048;7.682;2023-03-07T02:31:48;6.00;67.70
17307;DHT22;8771;48.048;7.682;2023-03-07T02:36:53;6.00;67.70
17307;DHT22;8771;48.048;7.682;2023-03-07T02:42:03;6.00;67.70
17307;DHT22;8771;48.048;7.682;2023-03-07T02:47:08;5.90;67.70
17307;DHT22;8771;48.048;7.682;2023-03-07T02:52:11;5.90;67.70
17307;DHT22;8771;48.048;7.682;2023-03-07T02:57:15;5.90;67.70
17307;DHT22;8771;48.048;7.682;2023-03-07T03:02:20;5.90;67.70
17307;DHT22;8771;48.048;7.682;2023-03-07T03:07:23;6.00;67.70
17307;DHT22;8771;48.048;7.682;2023-03-07T03:12:28;5.90;67.70
17307;DHT22;8771;48.048;7.682;2023-03-07T03:17:31;6.00;67.70
17307;DHT22;8771;48.048;7.682;2023-03-07T03:22:34;6.00;67.70
17307;DHT22;8771;48.048;7.682;2023-03-07T03:27:39;6.00;67.70
17307;DHT22;8771;48.048;7.682;2023-03-07T03:32:42;5.90;67.70
17307;DHT22;8771;48.048;7.682;2023-03-07T03:37:45;5.90;67.70
17307;DHT22;8771;48.048;7.682;2023-03-07T03:42:50;5.90;67.70
17307;DHT22;8771;48.048;7.682;2023-03-07T03:47:53;5.90;67.80
17307;DHT22;8771;48.048;7.682;2023-03-07T03:52:56;5.90;67.80
17307;DHT22;8771;48.048;7.682;2023-03-07T03:58:00;5.90;67.80
17307;DHT22;8771;48.048;7.682;2023-03-07T04:03:03;5.90;67.70
17307;DHT22;8771;48.048;7.682;2023-03-07T04:08:06;5.90;67.70
17307;DHT22;8771;48.048;7.682;2023-03-07T04:13:09;5.90;67.70
17307;DHT22;8771;48.048;7.682;2023-03-07T04:18:11;5.90;67.70
17307;DHT22;8771;48.048;7.682;2023-03-07T04:23:13;5.90;67.70
17307;DHT22;8771;48.048;7.682;2023-03-07T04:28:17;5.90;67.80
17307;DHT22;8771;48.048;7.682;2023-03-07T04:33:19;5.90;67.70
17307;DHT22;8771;48.048;7.682;2023-03-07T04:38:21;5.90;67.70
17307;DHT22;8771;48.048;7.682;2023-03-07T04:43:25;6.00;67.70
17307;DHT22;8771;48.048;7.682;2023-03-07T04:48:27;6.00;67.70
17307;DHT22;8771;48.048;7.682;2023-03-07T04:53:29;6.00;67.70
17307;DHT22;8771;48.048;7.682;2023-03-07T04:58:32;6.10;67.80
17307;DHT22;8771;48.048;7.682;2023-03-07T05:03:35;6.00;67.70
17307;DHT22;8771;48.048;7.682;2023-03-07T05:08:38;6.00;67.60
17307;DHT22;8771;48.048;7.682;2023-03-07T05:13:42;6.00;67.70
17307;DHT22;8771;48.048;7.682;2023-03-07T05:18:45;6.00;67.70
17307;DHT22;8771;48.048;7.682;2023-03-07T05:23:48;6.00;67.70
17307;DHT22;8771;48.048;7.682;2023-03-07T05:28:53;6.00;67.70
17307;DHT22;8771;48.048;7.682;2023-03-07T05:33:55;6.00;67.70
17307;DHT22;8771;48.048;7.682;2023-03-07T05:38:58;6.00;67.70
17307;DHT22;8771;48.048;7.682;2023-03-07T05:44:03;6.00;67.70
17307;DHT22;8771;48.048;7.682;2023-03-07T05:49:06;6.00;67.60
17307;DHT22;8771;48.048;7.682;2023-03-07T05:54:09;6.10;67.70
17307;DHT22;8771;48.048;7.682;2023-03-07T05:59:13;6.10;67.70
17307;DHT22;8771;48.048;7.682;2023-03-07T06:04:16;6.10;67.70
17307;DHT22;8771;48.048;7.682;2023-03-07T06:09:19;6.10;67.70
17307;DHT22;8771;48.048;7.682;2023-03-07T06:14:24;6.10;67.70
17307;DHT22;8771;48.048;7.682;2023-03-07T06:19:27;6.10;67.70
17307;DHT22;8771;48.048;7.682;2023-03-07T06:24:30;6.10;67.70
17307;DHT22;8771;48.048;7.682;2023-03-07T06:29:33;6.10;67.70
17307;DHT22;8771;48.048;7.682;2023-03-07T06:34:36;6.10;67.70
17307;DHT22;8771;48.048;7.682;2023-03-07T06:39:38;6.20;67.60
17307;DHT22;8771;48.048;7.682;2023-03-07T06:44:41;6.20;67.70
17307;DHT22;8771;48.048;7.682;2023-03-07T06:49:43;6.10;67.70
17307;DHT22;8771;48.048;7.682;2023-03-07T06:54:45;6.20;67.70
17307;DHT22;8771;48.048;7.682;2023-03-07T06:59:50;6.20;67.50
17307;DHT22;8771;48.048;7.682;2023-03-07T07:04:54;6.20;67.50
17307;DHT22;8771;48.048;7.682;2023-03-07T07:09:58;6.30;67.50
17307;DHT22;8771;48.048;7.682;2023-03-07T07:15:04;6.30;67.50
17307;DHT22;8771;48.048;7.682;2023-03-07T07:20:08;6.30;67.50
17307;DHT22;8771;48.048;7.682;2023-03-07T07:25:13;6.30;68.30
17307;DHT22;8771;48.048;7.682;2023-03-07T07:30:17;6.30;67.50
17307;DHT22;8771;48.048;7.682;2023-03-07T07:35:19;6.20;67.50
17307;DHT22;8771;48.048;7.682;2023-03-07T07:40:23;6.20;67.50
17307;DHT22;8771;48.048;7.682;2023-03-07T07:45:26;6.20;67.40
17307;DHT22;8771;48.048;7.682;2023-03-07T07:50:28;6.20;67.40
17307;DHT22;8771;48.048;7.682;2023-03-07T07:55:30;6.30;67.40
17307;DHT22;8771;48.048;7.682;2023-03-07T08:00:35;6.30;67.30
17307;DHT22;8771;48.048;7.682;2023-03-07T08:05:42;6.40;67.20
17307;DHT22;8771;48.048;7.682;2023-03-07T08:10:46;6.40;67.20
17307;DHT22;8771;48.048;7.682;2023-03-07T08:15:49;6.50;67.20
17307;DHT22;8771;48.048;7.682;2023-03-07T08:20:52;6.50;67.10
17307;DHT22;8771;48.048;7.682;2023-03-07T08:25:54;6.60;67.10
17307;DHT22;8771;48.048;7.682;2023-03-07T08:30:58;6.60;67.20
17307;DHT22;8771;48.048;7.682;2023-03-07T08:36:00;6.70;67.10
17307;DHT22;8771;48.048;7.682;2023-03-07T08:41:03;6.80;67.00
17307;DHT22;8771;48.048;7.682;2023-03-07T08:46:07;6.80;66.90
17307;DHT22;8771;48.048;7.682;2023-03-07T08:51:10;6.90;66.90
17307;DHT22;8771;48.048;7.682;2023-03-07T08:56:15;7.00;66.80
17307;DHT22;8771;48.048;7.682;2023-03-07T09:01:19;7.10;66.80
17307;DHT22;8771;48.048;7.682;2023-03-07T09:06:21;7.20;66.70
17307;DHT22;8771;48.048;7.682;2023-03-07T09:11:23;7.30;66.70
17307;DHT22;8771;48.048;7.682;2023-03-07T09:16:27;7.30;66.60
17307;DHT22;8771;48.048;7.682;2023-03-07T09:21:29;7.40;66.70
17307;DHT22;8771;48.048;7.682;2023-03-07T09:26:31;7.50;66.60
17307;DHT22;8771;48.048;7.682;2023-03-07T09:31:35;7.50;66.50
17307;DHT22;8771;48.048;7.682;2023-03-07T09:36:37;7.70;66.50
17307;DHT22;8771;48.048;7.682;2023-03-07T09:41:54;7.80;66.40
17307;DHT22;8771;48.048;7.682;2023-03-07T09:47:10;7.90;66.30
17307;DHT22;8771;48.048;7.682;2023-03-07T09:52:19;8.10;66.30
17307;DHT22;8771;48.048;7.682;2023-03-07T09:57:25;8.20;66.10
17307;DHT22;8771;48.048;7.682;2023-03-07T10:02:33;8.30;65.90
17307;DHT22;8771;48.048;7.682;2023-03-07T10:07:38;8.50;65.80
17307;DHT22;8771;48.048;7.682;2023-03-07T10:13:03;8.70;65.70
17307;DHT22;8771;48.048;7.682;2023-03-07T10:18:38;8.90;65.50
17307;DHT22;8771;48.048;7.682;2023-03-07T10:24:14;9.10;65.30
17307;DHT22;8771;48.048;7.682;2023-03-07T10:29:23;9.20;65.30
17307;DHT22;8771;48.048;7.682;2023-03-07T10:34:29;9.30;65.00
17307;DHT22;8771;48.048;7.682;2023-03-07T10:39:37;9.40;64.90
17307;DHT22;8771;48.048;7.682;2023-03-07T10:44:40;9.50;64.90
17307;DHT22;8771;48.048;7.682;2023-03-07T10:49:47;9.80;64.80
17307;DHT22;8771;48.048;7.682;2023-03-07T10:54:49;10.00;64.50
17307;DHT22;8771;48.048;7.682;2023-03-07T10:59:51;10.40;64.10
17307;DHT22;8771;48.048;7.682;2023-03-07T11:04:55;10.70;63.80
17307;DHT22;8771;48.048;7.682;2023-03-07T11:09:58;10.90;63.80
17307;DHT22;8771;48.048;7.682;2023-03-07T11:15:11;11.00;63.80
17307;DHT22;8771;48.048;7.682;2023-03-07T11:20:21;11.20;63.90
17307;DHT22;8771;48.048;7.682;2023-03-07T11:25:24;11.30;63.90
17307;DHT22;8771;48.048;7.682;2023-03-07T11:30:28;11.50;64.40
17307;DHT22;8771;48.048;7.682;2023-03-07T11:35:49;11.80;63.40
17307;DHT22;8771;48.048;7.682;2023-03-07T11:40:59;11.90;63.50
17307;DHT22;8771;48.048;7.682;2023-03-07T11:46:07;12.00;63.50
17307;DHT22;8771;48.048;7.682;2023-03-07T11:51:28;12.20;63.40
17307;DHT22;8771;48.048;7.682;2023-03-07T11:56:35;12.50;63.20
17307;DHT22;8771;48.048;7.682;2023-03-07T12:01:48;12.80;62.90
17307;DHT22;8771;48.048;7.682;2023-03-07T12:07:03;13.00;62.90
17307;DHT22;8771;48.048;7.682;2023-03-07T12:12:36;13.10;62.90
17307;DHT22;8771;48.048;7.682;2023-03-07T12:17:46;13.20;63.00
17307;DHT22;8771;48.048;7.682;2023-03-07T12:23:11;13.10;63.20
17307;DHT22;8771;48.048;7.682;2023-03-07T12:28:21;13.00;63.50
17307;DHT22;8771;48.048;7.682;2023-03-07T12:33:34;13.00;63.50
17307;DHT22;8771;48.048;7.682;2023-03-07T12:38:47;13.00;63.60
17307;DHT22;8771;48.048;7.682;2023-03-07T12:43:55;12.70;63.80
17307;DHT22;8771;48.048;7.682;2023-03-07T12:49:01;12.30;64.10
17307;DHT22;8771;48.048;7.682;2023-03-07T12:54:11;12.20;64.40
17307;DHT22;8771;48.048;7.682;2023-03-07T12:59:15;12.40;64.30
17307;DHT22;8771;48.048;7.682;2023-03-07T13:04:23;12.60;63.80
17307;DHT22;8771;48.048;7.682;2023-03-07T13:09:30;12.80;63.60
17307;DHT22;8771;48.048;7.682;2023-03-07T13:14:38;12.80;63.50
17307;DHT22;8771;48.048;7.682;2023-03-07T13:20:01;12.90;63.50
17307;DHT22;8771;48.048;7.682;2023-03-07T13:25:39;13.00;63.40
17307;DHT22;8771;48.048;7.682;2023-03-07T13:31:17;13.20;63.20
17307;DHT22;8771;48.048;7.682;2023-03-07T13:36:31;13.20;63.20
17307;DHT22;8771;48.048;7.682;2023-03-07T13:41:46;13.20;63.00
17307;DHT22;8771;48.048;7.682;2023-03-07T13:46:49;13.40;62.80
17307;DHT22;8771;48.048;7.682;2023-03-07T13:52:15;13.50;62.80
17307;DHT22;8771;48.048;7.682;2023-03-07T13:57:28;13.60;62.50
17307;DHT22;8771;48.048;7.682;2023-03-07T14:02:32;13.70;62.60
17307;DHT22;8771;48.048;7.682;2023-03-07T14:07:37;13.70;62.60
17307;DHT22;8771;48.048;7.682;2023-03-07T14:12:53;13.70;62.70
17307;DHT22;8771;48.048;7.682;2023-03-07T14:18:14;13.40;62.90
17307;DHT22;8771;48.048;7.682;2023-03-07T14:23:32;13.40;63.90
17307;DHT22;8771;48.048;7.682;2023-03-07T14:28:48;13.30;63.30
17307;DHT22;8771;48.048;7.682;2023-03-07T14:33:51;13.20;63.50
17307;DHT22;8771;48.048;7.682;2023-03-07T14:38:55;13.10;63.50
17307;DHT22;8771;48.048;7.682;2023-03-07T14:44:07;13.00;63.50
17307;DHT22;8771;48.048;7.682;2023-03-07T14:49:23;12.90;63.70
17307;DHT22;8771;48.048;7.682;2023-03-07T14:54:30;12.80;64.00
17307;DHT22;8771;48.048;7.682;2023-03-07T14:59:34;12.60;64.00
17307;DHT22;8771;48.048;7.682;2023-03-07T15:04:36;12.50;64.10
17307;DHT22;8771;48.048;7.682;2023-03-07T15:09:40;12.50;64.00
17307;DHT22;8771;48.048;7.682;2023-03-07T15:14:45;12.40;64.00
17307;DHT22;8771;48.048;7.682;2023-03-07T15:20:03;12.30;64.20
17307;DHT22;8771;48.048;7.682;2023-03-07T15:25:16;12.10;64.20
17307;DHT22;8771;48.048;7.682;2023-03-07T15:30:23;12.00;64.30
17307;DHT22;8771;48.048;7.682;2023-03-07T15:35:27;11.90;64.20
17307;DHT22;8771;48.048;7.682;2023-03-07T15:40:32;11.90;64.30
17307;DHT22;8771;48.048;7.682;2023-03-07T15:45:37;11.80;64.10
17307;DHT22;8771;48.048;7.682;2023-03-07T15:50:41;11.80;63.90
17307;DHT22;8771;48.048;7.682;2023-03-07T15:55:53;11.90;63.90
17307;DHT22;8771;48.048;7.682;2023-03-07T16:01:06;11.80;63.90
17307;DHT22;8771;48.048;7.682;2023-03-07T16:06:38;11.80;63.70
17307;DHT22;8771;48.048;7.682;2023-03-07T16:11:40;11.70;63.70
17307;DHT22;8771;48.048;7.682;2023-03-07T16:16:43;11.60;63.70
17307;DHT22;8771;48.048;7.682;2023-03-07T16:31:51;10.20;71.30
17307;DHT22;8771;48.048;7.682;2023-03-07T16:36:55;11.10;63.60
17307;DHT22;8771;48.048;7.682;2023-03-07T16:41:57;10.90;64.00
17307;DHT22;8771;48.048;7.682;2023-03-07T16:47:05;10.80;64.20
17307;DHT22;8771;48.048;7.682;2023-03-07T16:52:10;10.60;64.20
17307;DHT22;8771;48.048;7.682;2023-03-07T16:57:15;10.40;64.20
17307;DHT22;8771;48.048;7.682;2023-03-07T17:02:18;10.30;64.40
17307;DHT22;8771;48.048;7.682;2023-03-07T17:07:24;10.10;64.50
17307;DHT22;8771;48.048;7.682;2023-03-07T17:12:27;9.90;64.50
17307;DHT22;8771;48.048;7.682;2023-03-07T17:17:31;9.70;64.50
17307;DHT22;8771;48.048;7.682;2023-03-07T17:22:35;9.60;64.70
17307;DHT22;8771;48.048;7.682;2023-03-07T17:27:39;9.50;64.70
17307;DHT22;8771;48.048;7.682;2023-03-07T17:32:42;9.40;64.70
17307;DHT22;8771;48.048;7.682;2023-03-07T17:37:48;9.20;64.70
17307;DHT22;8771;48.048;7.682;2023-03-07T17:42:52;9.10;64.80
17307;DHT22;8771;48.048;7.682;2023-03-07T17:47:57;9.00;64.80
17307;DHT22;8771;48.048;7.682;2023-03-07T17:53:00;8.90;64.80
17307;DHT22;8771;48.048;7.682;2023-03-07T17:58:05;8.80;64.80
17307;DHT22;8771;48.048;7.682;2023-03-07T18:03:08;8.60;64.80
17307;DHT22;8771;48.048;7.682;2023-03-07T18:08:13;8.50;64.90
17307;DHT22;8771;48.048;7.682;2023-03-07T18:13:16;8.40;64.90
17307;DHT22;8771;48.048;7.682;2023-03-07T18:18:22;8.30;64.90
17307;DHT22;8771;48.048;7.682;2023-03-07T18:23:26;8.20;64.90
17307;DHT22;8771;48.048;7.682;2023-03-07T18:28:28;8.20;65.00
17307;DHT22;8771;48.048;7.682;2023-03-07T18:33:32;8.10;64.90
17307;DHT22;8771;48.048;7.682;2023-03-07T18:38:35;7.90;64.80
17307;DHT22;8771;48.048;7.682;2023-03-07T18:43:38;7.80;64.90
17307;DHT22;8771;48.048;7.682;2023-03-07T18:48:40;7.70;65.00
17307;DHT22;8771;48.048;7.682;2023-03-07T18:53:43;7.60;65.00
17307;DHT22;8771;48.048;7.682;2023-03-07T18:58:46;7.50;65.10
17307;DHT22;8771;48.048;7.682;2023-03-07T19:03:56;7.40;65.10
17307;DHT22;8771;48.048;7.682;2023-03-07T19:09:02;7.40;65.90
17307;DHT22;8771;48.048;7.682;2023-03-07T19:14:05;7.30;65.10
17307;DHT22;8771;48.048;7.682;2023-03-07T19:19:08;7.30;65.10
17307;DHT22;8771;48.048;7.682;2023-03-07T19:24:13;7.20;65.00
17307;DHT22;8771;48.048;7.682;2023-03-07T19:34:21;7.10;64.40
17307;DHT22;8771;48.048;7.682;2023-03-07T19:39:25;7.10;65.10
17307;DHT22;8771;48.048;7.682;2023-03-07T19:44:29;7.00;65.10
17307;DHT22;8771;48.048;7.682;2023-03-07T19:49:33;7.00;65.00
17307;DHT22;8771;48.048;7.682;2023-03-07T19:54:37;6.90;65.00
17307;DHT22;8771;48.048;7.682;2023-03-07T19:59:40;6.80;65.00
17307;DHT22;8771;48.048;7.682;2023-03-07T20:04:43;6.80;65.00
17307;DHT22;8771;48.048;7.682;2023-03-07T20:09:49;6.80;64.90
17307;DHT22;8771;48.048;7.682;2023-03-07T20:14:51;6.80;64.90
17307;DHT22;8771;48.048;7.682;2023-03-07T20:19:53;6.80;64.90
17307;DHT22;8771;48.048;7.682;2023-03-07T20:24:59;6.80;64.80
17307;DHT22;8771;48.048;7.682;2023-03-07T20:30:01;6.80;64.70
17307;DHT22;8771;48.048;7.682;2023-03-07T20:35:03;6.80;64.60
17307;DHT22;8771;48.048;7.682;2023-03-07T20:40:08;6.80;64.60
17307;DHT22;8771;48.048;7.682;2023-03-07T20:45:11;6.80;64.60
17307;DHT22;8771;48.048;7.682;2023-03-07T20:50:12;6.70;64.60
17307;DHT22;8771;48.048;7.682;2023-03-07T20:55:16;6.60;64.70
17307;DHT22;8771;48.048;7.682;2023-03-07T21:00:20;6.50;64.70
17307;DHT22;8771;48.048;7.682;2023-03-07T21:05:42;6.40;64.80
17307;DHT22;8771;48.048;7.682;2023-03-07T21:10:45;6.30;64.70
17307;DHT22;8771;48.048;7.682;2023-03-07T21:15:52;6.30;64.70
17307;DHT22;8771;48.048;7.682;2023-03-07T21:20:58;6.20;64.60
17307;DHT22;8771;48.048;7.682;2023-03-07T21:26:02;6.20;64.60
17307;DHT22;8771;48.048;7.682;2023-03-07T21:31:06;6.20;64.60
17307;DHT22;8771;48.048;7.682;2023-03-07T21:36:09;6.20;64.60
17307;DHT22;8771;48.048;7.682;2023-03-07T21:41:14;6.20;64.50
17307;DHT22;8771;48.048;7.682;2023-03-07T21:46:16;6.20;64.50
17307;DHT22;8771;48.048;7.682;2023-03-07T21:51:18;6.20;64.50
17307;DHT22;8771;48.048;7.682;2023-03-07T21:56:22;6.20;64.50
17307;DHT22;8771;48.048;7.682;2023-03-07T22:01:25;6.20;64.50
17307;DHT22;8771;48.048;7.682;2023-03-07T22:06:29;6.30;64.50
17307;DHT22;8771;48.048;7.682;2023-03-07T22:11:33;6.30;64.50
17307;DHT22;8771;48.048;7.682;2023-03-07T22:16:36;6.30;64.50
17307;DHT22;8771;48.048;7.682;2023-03-07T22:21:38;6.30;64.60
17307;DHT22;8771;48.048;7.682;2023-03-07T22:26:42;6.30;64.50
17307;DHT22;8771;48.048;7.682;2023-03-07T22:31:44;6.20;64.50
17307;DHT22;8771;48.048;7.682;2023-03-07T22:36:49;6.20;64.60
17307;DHT22;8771;48.048;7.682;2023-03-07T22:41:53;6.10;64.60
17307;DHT22;8771;48.048;7.682;2023-03-07T22:46:58;6.10;64.70
17307;DHT22;8771;48.048;7.682;2023-03-07T22:52:01;6.00;64.60
17307;DHT22;8771;48.048;7.682;2023-03-07T22:57:06;6.00;64.70
17307;DHT22;8771;48.048;7.682;2023-03-07T23:02:09;6.00;64.70
17307;DHT22;8771;48.048;7.682;2023-03-07T23:07:12;5.90;64.70
17307;DHT22;8771;48.048;7.682;2023-03-07T23:12:18;5.90;64.80
17307;DHT22;8771;48.048;7.682;2023-03-07T23:17:22;5.90;64.80
17307;DHT22;8771;48.048;7.682;2023-03-07T23:22:25;5.80;64.80
17307;DHT22;8771;48.048;7.682;2023-03-07T23:27:30;5.70;64.90
17307;DHT22;8771;48.048;7.682;2023-03-07T23:32:33;5.70;65.00
17307;DHT22;8771;48.048;7.682;2023-03-07T23:37:35;5.60;65.00
17307;DHT22;8771;48.048;7.682;2023-03-07T23:42:38;5.50;65.00
17307;DHT22;8771;48.048;7.682;2023-03-07T23:47:40;5.50;65.00
17307;DHT22;8771;48.048;7.682;2023-03-07T23:52:42;5.50;65.00
17307;DHT22;8771;48.048;7.682;2023-03-07T23:57:46;5.50;65.00
